sensor_id;sensor_type;location;lat;lon;timestamp;P1;durP1;ratioP1;P2;durP2;ratioP2
63499;SDS011;49654;51.142;14.924;2022-09-09T00:01:10;2.78;;;2.33;;
63499;SDS011;49654;51.142;14.924;2022-09-09T00:03:53;4.03;;;2.13;;
63499;SDS011;49654;51.142;14.924;2022-09-09T00:06:24;2.72;;;2.22;;
63499;SDS011;49654;51.142;14.924;2022-09-09T00:09:00;3.00;;;2.45;;
63499;SDS011;49654;51.142;14.924;2022-09-09T00:11:33;7.20;;;2.30;;
63499;SDS011;49654;51.142;14.924;2022-09-09T00:14:10;2.63;;;2.28;;
63499;SDS011;49654;51.142;14.924;2022-09-09T00:16:46;2.70;;;2.50;;
63499;SDS011;49654;51.142;14.924;2022-09-09T00:19:22;5.50;;;2.42;;
63499;SDS011;49654;51.142;14.924;2022-09-09T00:21:58;2.42;;;2.20;;
63499;SDS011;49654;51.142;14.924;2022-09-09T00:24:35;4.10;;;2.55;;
63499;SDS011;49654;51.142;14.924;2022-09-09T00:27:08;2.85;;;2.13;;
63499;SDS011;49654;51.142;14.924;2022-09-09T00:29:45;2.95;;;2.40;;
63499;SDS011;49654;51.142;14.924;2022-09-09T00:32:18;3.17;;;2.15;;
63499;SDS011;49654;51.142;14.924;2022-09-09T00:34:47;3.30;;;2.40;;
63499;SDS011;49654;51.142;14.924;2022-09-09T00:37:16;2.42;;;2.20;;
63499;SDS011;49654;51.142;14.924;2022-09-09T00:39:46;2.40;;;2.20;;
63499;SDS011;49654;51.142;14.924;2022-09-09T00:42:15;3.05;;;2.40;;
63499;SDS011;49654;51.142;14.924;2022-09-09T00:44:50;2.55;;;2.22;;
63499;SDS011;49654;51.142;14.924;2022-09-09T00:50:15;4.07;;;2.40;;
63499;SDS011;49654;51.142;14.924;2022-09-09T00:52:52;3.45;;;2.28;;
63499;SDS011;49654;51.142;14.924;2022-09-09T00:55:28;2.88;;;1.98;;
63499;SDS011;49654;51.142;14.924;2022-09-09T00:58:07;3.05;;;2.15;;
63499;SDS011;49654;51.142;14.924;2022-09-09T01:00:38;3.75;;;1.95;;
63499;SDS011;49654;51.142;14.924;2022-09-09T01:03:13;2.13;;;1.88;;
63499;SDS011;49654;51.142;14.924;2022-09-09T01:05:49;21.23;;;3.55;;
63499;SDS011;49654;51.142;14.924;2022-09-09T01:08:31;2.72;;;1.90;;
63499;SDS011;49654;51.142;14.924;2022-09-09T01:11:20;4.75;;;2.17;;
63499;SDS011;49654;51.142;14.924;2022-09-09T01:13:52;6.22;;;2.50;;
63499;SDS011;49654;51.142;14.924;2022-09-09T01:16:25;3.65;;;1.85;;
63499;SDS011;49654;51.142;14.924;2022-09-09T01:18:55;2.05;;;1.85;;
63499;SDS011;49654;51.142;14.924;2022-09-09T01:21:26;2.70;;;1.95;;
63499;SDS011;49654;51.142;14.924;2022-09-09T01:24:18;2.17;;;1.98;;
63499;SDS011;49654;51.142;14.924;2022-09-09T01:26:51;4.05;;;1.92;;
63499;SDS011;49654;51.142;14.924;2022-09-09T01:29:21;3.38;;;2.20;;
63499;SDS011;49654;51.142;14.924;2022-09-09T01:31:52;3.95;;;2.00;;
63499;SDS011;49654;51.142;14.924;2022-09-09T01:34:21;2.38;;;2.17;;
63499;SDS011;49654;51.142;14.924;2022-09-09T01:36:53;3.67;;;2.45;;
63499;SDS011;49654;51.142;14.924;2022-09-09T01:39:24;3.35;;;2.25;;
63499;SDS011;49654;51.142;14.924;2022-09-09T01:41:53;3.38;;;2.22;;
63499;SDS011;49654;51.142;14.924;2022-09-09T01:44:22;3.92;;;2.50;;
63499;SDS011;49654;51.142;14.924;2022-09-09T01:46:49;2.58;;;2.08;;
63499;SDS011;49654;51.142;14.924;2022-09-09T01:49:17;3.05;;;2.10;;
63499;SDS011;49654;51.142;14.924;2022-09-09T01:51:45;2.95;;;2.50;;
63499;SDS011;49654;51.142;14.924;2022-09-09T01:54:15;3.17;;;2.13;;
63499;SDS011;49654;51.142;14.924;2022-09-09T01:56:45;2.90;;;2.00;;
63499;SDS011;49654;51.142;14.924;2022-09-09T01:59:31;2.28;;;1.90;;
63499;SDS011;49654;51.142;14.924;2022-09-09T02:02:13;2.20;;;1.92;;
63499;SDS011;49654;51.142;14.924;2022-09-09T02:04:45;2.55;;;1.95;;
63499;SDS011;49654;51.142;14.924;2022-09-09T02:07:19;3.78;;;2.05;;
63499;SDS011;49654;51.142;14.924;2022-09-09T02:09:57;2.33;;;2.10;;
63499;SDS011;49654;51.142;14.924;2022-09-09T02:12:28;2.35;;;2.15;;
63499;SDS011;49654;51.142;14.924;2022-09-09T02:15:03;2.95;;;2.28;;
63499;SDS011;49654;51.142;14.924;2022-09-09T02:17:34;2.60;;;2.20;;
63499;SDS011;49654;51.142;14.924;2022-09-09T02:20:05;2.47;;;1.98;;
63499;SDS011;49654;51.142;14.924;2022-09-09T02:22:35;3.05;;;1.90;;
63499;SDS011;49654;51.142;14.924;2022-09-09T02:25:05;2.13;;;1.90;;
63499;SDS011;49654;51.142;14.924;2022-09-09T02:27:35;3.70;;;2.00;;
63499;SDS011;49654;51.142;14.924;2022-09-09T02:30:04;3.33;;;1.80;;
63499;SDS011;49654;51.142;14.924;2022-09-09T02:32:32;2.58;;;1.92;;
63499;SDS011;49654;51.142;14.924;2022-09-09T02:35:03;4.18;;;1.85;;
63499;SDS011;49654;51.142;14.924;2022-09-09T02:37:34;2.95;;;1.83;;
63499;SDS011;49654;51.142;14.924;2022-09-09T02:40:04;3.53;;;2.10;;
63499;SDS011;49654;51.142;14.924;2022-09-09T02:42:38;3.05;;;2.00;;
63499;SDS011;49654;51.142;14.924;2022-09-09T02:45:08;5.57;;;2.08;;
63499;SDS011;49654;51.142;14.924;2022-09-09T02:47:37;2.60;;;2.15;;
63499;SDS011;49654;51.142;14.924;2022-09-09T02:50:12;5.13;;;2.30;;
63499;SDS011;49654;51.142;14.924;2022-09-09T02:52:45;2.35;;;2.03;;
63499;SDS011;49654;51.142;14.924;2022-09-09T02:55:22;5.25;;;2.60;;
63499;SDS011;49654;51.142;14.924;2022-09-09T02:57:55;2.30;;;2.10;;
63499;SDS011;49654;51.142;14.924;2022-09-09T03:00:26;2.50;;;2.30;;
63499;SDS011;49654;51.142;14.924;2022-09-09T03:02:54;3.30;;;2.38;;
63499;SDS011;49654;51.142;14.924;2022-09-09T03:05:22;2.83;;;2.53;;
63499;SDS011;49654;51.142;14.924;2022-09-09T03:07:49;7.85;;;4.25;;
63499;SDS011;49654;51.142;14.924;2022-09-09T03:10:16;3.22;;;2.80;;
63499;SDS011;49654;51.142;14.924;2022-09-09T03:12:43;3.58;;;2.90;;
63499;SDS011;49654;51.142;14.924;2022-09-09T03:15:10;10.25;;;3.15;;
63499;SDS011;49654;51.142;14.924;2022-09-09T03:17:40;3.10;;;2.80;;
63499;SDS011;49654;51.142;14.924;2022-09-09T03:20:07;3.00;;;2.70;;
63499;SDS011;49654;51.142;14.924;2022-09-09T03:22:34;4.00;;;2.70;;
63499;SDS011;49654;51.142;14.924;2022-09-09T03:25:02;4.95;;;2.80;;
63499;SDS011;49654;51.142;14.924;2022-09-09T03:27:29;4.38;;;2.40;;
63499;SDS011;49654;51.142;14.924;2022-09-09T03:29:56;5.28;;;2.53;;
63499;SDS011;49654;51.142;14.924;2022-09-09T03:32:24;2.85;;;2.40;;
63499;SDS011;49654;51.142;14.924;2022-09-09T03:34:53;3.40;;;2.58;;
63499;SDS011;49654;51.142;14.924;2022-09-09T03:37:20;6.22;;;2.75;;
63499;SDS011;49654;51.142;14.924;2022-09-09T03:39:48;2.33;;;2.13;;
63499;SDS011;49654;51.142;14.924;2022-09-09T03:42:15;2.88;;;2.20;;
63499;SDS011;49654;51.142;14.924;2022-09-09T03:44:44;3.20;;;2.28;;
63499;SDS011;49654;51.142;14.924;2022-09-09T03:47:15;2.85;;;2.58;;
63499;SDS011;49654;51.142;14.924;2022-09-09T03:49:44;2.70;;;2.50;;
63499;SDS011;49654;51.142;14.924;2022-09-09T03:52:12;4.63;;;2.50;;
63499;SDS011;49654;51.142;14.924;2022-09-09T03:54:39;4.70;;;2.75;;
63499;SDS011;49654;51.142;14.924;2022-09-09T03:57:08;2.30;;;2.10;;
63499;SDS011;49654;51.142;14.924;2022-09-09T03:59:35;4.85;;;2.63;;
63499;SDS011;49654;51.142;14.924;2022-09-09T04:02:02;5.63;;;2.30;;
63499;SDS011;49654;51.142;14.924;2022-09-09T04:04:30;3.53;;;2.15;;
63499;SDS011;49654;51.142;14.924;2022-09-09T04:06:56;3.92;;;2.33;;
63499;SDS011;49654;51.142;14.924;2022-09-09T04:09:25;3.97;;;2.10;;
63499;SDS011;49654;51.142;14.924;2022-09-09T04:11:52;2.80;;;2.45;;
63499;SDS011;49654;51.142;14.924;2022-09-09T04:14:20;5.07;;;2.33;;
63499;SDS011;49654;51.142;14.924;2022-09-09T04:16:47;3.20;;;2.10;;
63499;SDS011;49654;51.142;14.924;2022-09-09T04:19:14;3.90;;;2.20;;
63499;SDS011;49654;51.142;14.924;2022-09-09T04:21:41;6.35;;;2.35;;
63499;SDS011;49654;51.142;14.924;2022-09-09T04:24:08;4.85;;;2.30;;
63499;SDS011;49654;51.142;14.924;2022-09-09T04:26:37;5.18;;;2.08;;
63499;SDS011;49654;51.142;14.924;2022-09-09T04:29:04;3.50;;;2.20;;
63499;SDS011;49654;51.142;14.924;2022-09-09T04:31:33;5.97;;;2.20;;
63499;SDS011;49654;51.142;14.924;2022-09-09T04:34:00;5.88;;;2.22;;
63499;SDS011;49654;51.142;14.924;2022-09-09T04:36:30;4.10;;;2.13;;
63499;SDS011;49654;51.142;14.924;2022-09-09T04:38:58;3.72;;;2.03;;
63499;SDS011;49654;51.142;14.924;2022-09-09T04:41:27;3.42;;;2.00;;
63499;SDS011;49654;51.142;14.924;2022-09-09T04:43:55;2.58;;;1.95;;
63499;SDS011;49654;51.142;14.924;2022-09-09T04:46:22;4.95;;;2.05;;
63499;SDS011;49654;51.142;14.924;2022-09-09T04:48:49;7.05;;;2.45;;
63499;SDS011;49654;51.142;14.924;2022-09-09T04:51:16;4.15;;;1.90;;
63499;SDS011;49654;51.142;14.924;2022-09-09T04:53:43;3.13;;;1.88;;
63499;SDS011;49654;51.142;14.924;2022-09-09T04:56:13;2.22;;;1.80;;
63499;SDS011;49654;51.142;14.924;2022-09-09T04:58:41;10.65;;;2.70;;
63499;SDS011;49654;51.142;14.924;2022-09-09T05:01:11;3.45;;;2.00;;
63499;SDS011;49654;51.142;14.924;2022-09-09T05:03:40;3.90;;;2.00;;
63499;SDS011;49654;51.142;14.924;2022-09-09T05:06:08;4.88;;;2.10;;
63499;SDS011;49654;51.142;14.924;2022-09-09T05:08:36;2.97;;;2.00;;
63499;SDS011;49654;51.142;14.924;2022-09-09T05:11:04;2.28;;;1.67;;
63499;SDS011;49654;51.142;14.924;2022-09-09T05:13:42;3.38;;;1.92;;
63499;SDS011;49654;51.142;14.924;2022-09-09T05:16:10;3.72;;;2.05;;
63499;SDS011;49654;51.142;14.924;2022-09-09T05:18:38;4.72;;;1.92;;
63499;SDS011;49654;51.142;14.924;2022-09-09T05:21:05;2.25;;;1.65;;
63499;SDS011;49654;51.142;14.924;2022-09-09T05:23:33;5.05;;;1.50;;
63499;SDS011;49654;51.142;14.924;2022-09-09T05:26:00;2.35;;;1.75;;
63499;SDS011;49654;51.142;14.924;2022-09-09T05:28:28;2.90;;;1.90;;
63499;SDS011;49654;51.142;14.924;2022-09-09T05:30:56;3.45;;;1.95;;
63499;SDS011;49654;51.142;14.924;2022-09-09T05:33:25;2.35;;;1.80;;
63499;SDS011;49654;51.142;14.924;2022-09-09T05:35:56;2.13;;;1.50;;
63499;SDS011;49654;51.142;14.924;2022-09-09T05:38:24;3.28;;;1.80;;
63499;SDS011;49654;51.142;14.924;2022-09-09T05:40:51;2.95;;;1.63;;
63499;SDS011;49654;51.142;14.924;2022-09-09T05:43:19;3.13;;;1.52;;
63499;SDS011;49654;51.142;14.924;2022-09-09T05:45:46;3.58;;;1.77;;
63499;SDS011;49654;51.142;14.924;2022-09-09T05:48:13;3.53;;;1.80;;
63499;SDS011;49654;51.142;14.924;2022-09-09T05:50:42;6.65;;;2.13;;
63499;SDS011;49654;51.142;14.924;2022-09-09T05:53:10;2.17;;;1.77;;
63499;SDS011;49654;51.142;14.924;2022-09-09T05:55:37;3.03;;;1.60;;
63499;SDS011;49654;51.142;14.924;2022-09-09T05:58:04;2.67;;;1.65;;
63499;SDS011;49654;51.142;14.924;2022-09-09T06:00:31;2.58;;;1.60;;
63499;SDS011;49654;51.142;14.924;2022-09-09T06:02:58;3.33;;;1.75;;
63499;SDS011;49654;51.142;14.924;2022-09-09T06:05:25;4.55;;;1.80;;
63499;SDS011;49654;51.142;14.924;2022-09-09T06:07:55;4.32;;;1.60;;
63499;SDS011;49654;51.142;14.924;2022-09-09T06:10:22;3.35;;;1.60;;
63499;SDS011;49654;51.142;14.924;2022-09-09T06:12:52;3.72;;;2.10;;
63499;SDS011;49654;51.142;14.924;2022-09-09T06:15:19;3.58;;;1.70;;
63499;SDS011;49654;51.142;14.924;2022-09-09T06:17:47;2.97;;;1.90;;
63499;SDS011;49654;51.142;14.924;2022-09-09T06:20:20;2.13;;;1.67;;
63499;SDS011;49654;51.142;14.924;2022-09-09T06:22:47;3.53;;;1.92;;
63499;SDS011;49654;51.142;14.924;2022-09-09T06:25:15;3.80;;;1.90;;
63499;SDS011;49654;51.142;14.924;2022-09-09T06:27:47;2.50;;;1.80;;
63499;SDS011;49654;51.142;14.924;2022-09-09T06:30:15;2.35;;;1.50;;
63499;SDS011;49654;51.142;14.924;2022-09-09T06:32:42;2.90;;;2.13;;
63499;SDS011;49654;51.142;14.924;2022-09-09T06:35:09;2.63;;;1.70;;
63499;SDS011;49654;51.142;14.924;2022-09-09T06:37:37;3.15;;;1.77;;
63499;SDS011;49654;51.142;14.924;2022-09-09T06:40:04;4.07;;;2.10;;
63499;SDS011;49654;51.142;14.924;2022-09-09T06:42:33;2.80;;;1.80;;
63499;SDS011;49654;51.142;14.924;2022-09-09T06:45:00;2.60;;;1.70;;
63499;SDS011;49654;51.142;14.924;2022-09-09T06:47:27;3.53;;;1.70;;
63499;SDS011;49654;51.142;14.924;2022-09-09T06:49:55;2.67;;;1.80;;
63499;SDS011;49654;51.142;14.924;2022-09-09T06:52:22;3.47;;;1.70;;
63499;SDS011;49654;51.142;14.924;2022-09-09T06:54:50;3.80;;;1.85;;
63499;SDS011;49654;51.142;14.924;2022-09-09T06:57:17;3.17;;;2.05;;
63499;SDS011;49654;51.142;14.924;2022-09-09T06:59:45;3.72;;;2.10;;
63499;SDS011;49654;51.142;14.924;2022-09-09T07:02:12;4.85;;;2.30;;
63499;SDS011;49654;51.142;14.924;2022-09-09T07:04:40;3.95;;;2.25;;
63499;SDS011;49654;51.142;14.924;2022-09-09T07:07:07;3.13;;;2.50;;
63499;SDS011;49654;51.142;14.924;2022-09-09T07:09:35;3.35;;;2.40;;
63499;SDS011;49654;51.142;14.924;2022-09-09T07:12:02;5.47;;;1.92;;
63499;SDS011;49654;51.142;14.924;2022-09-09T07:14:29;3.53;;;2.28;;
63499;SDS011;49654;51.142;14.924;2022-09-09T07:16:57;7.97;;;2.60;;
63499;SDS011;49654;51.142;14.924;2022-09-09T07:19:25;6.90;;;2.25;;
63499;SDS011;49654;51.142;14.924;2022-09-09T07:21:52;5.65;;;3.05;;
63499;SDS011;49654;51.142;14.924;2022-09-09T07:24:19;2.85;;;1.98;;
63499;SDS011;49654;51.142;14.924;2022-09-09T07:26:47;3.47;;;2.20;;
63499;SDS011;49654;51.142;14.924;2022-09-09T07:29:14;3.28;;;2.30;;
63499;SDS011;49654;51.142;14.924;2022-09-09T07:31:41;3.55;;;2.60;;
63499;SDS011;49654;51.142;14.924;2022-09-09T07:34:09;4.65;;;2.80;;
63499;SDS011;49654;51.142;14.924;2022-09-09T07:36:36;4.68;;;2.53;;
63499;SDS011;49654;51.142;14.924;2022-09-09T07:39:06;3.78;;;2.40;;
63499;SDS011;49654;51.142;14.924;2022-09-09T07:41:35;4.07;;;2.63;;
63499;SDS011;49654;51.142;14.924;2022-09-09T07:44:04;3.45;;;2.85;;
63499;SDS011;49654;51.142;14.924;2022-09-09T07:46:33;3.83;;;2.75;;
63499;SDS011;49654;51.142;14.924;2022-09-09T07:49:01;6.95;;;3.00;;
63499;SDS011;49654;51.142;14.924;2022-09-09T07:51:31;4.10;;;3.25;;
63499;SDS011;49654;51.142;14.924;2022-09-09T07:54:00;5.07;;;3.30;;
63499;SDS011;49654;51.142;14.924;2022-09-09T07:56:29;4.53;;;3.47;;
63499;SDS011;49654;51.142;14.924;2022-09-09T07:58:57;5.75;;;4.18;;
63499;SDS011;49654;51.142;14.924;2022-09-09T08:01:25;4.55;;;3.50;;
63499;SDS011;49654;51.142;14.924;2022-09-09T08:03:55;6.80;;;4.80;;
63499;SDS011;49654;51.142;14.924;2022-09-09T08:06:25;5.95;;;4.60;;
63499;SDS011;49654;51.142;14.924;2022-09-09T08:08:53;5.68;;;5.00;;
63499;SDS011;49654;51.142;14.924;2022-09-09T08:11:21;5.68;;;4.70;;
63499;SDS011;49654;51.142;14.924;2022-09-09T08:13:50;5.57;;;5.07;;
63499;SDS011;49654;51.142;14.924;2022-09-09T08:16:18;6.70;;;5.25;;
63499;SDS011;49654;51.142;14.924;2022-09-09T08:18:47;10.20;;;5.65;;
63499;SDS011;49654;51.142;14.924;2022-09-09T08:21:15;6.45;;;5.35;;
63499;SDS011;49654;51.142;14.924;2022-09-09T08:23:44;6.20;;;5.40;;
63499;SDS011;49654;51.142;14.924;2022-09-09T08:26:14;6.70;;;5.68;;
63499;SDS011;49654;51.142;14.924;2022-09-09T08:28:42;5.80;;;5.20;;
63499;SDS011;49654;51.142;14.924;2022-09-09T08:31:11;5.90;;;5.30;;
63499;SDS011;49654;51.142;14.924;2022-09-09T08:33:39;5.63;;;5.13;;
63499;SDS011;49654;51.142;14.924;2022-09-09T08:36:08;6.53;;;4.70;;
63499;SDS011;49654;51.142;14.924;2022-09-09T08:38:36;6.07;;;4.80;;
63499;SDS011;49654;51.142;14.924;2022-09-09T08:41:07;6.25;;;5.07;;
63499;SDS011;49654;51.142;14.924;2022-09-09T08:43:45;7.13;;;4.88;;
63499;SDS011;49654;51.142;14.924;2022-09-09T08:46:15;6.57;;;4.80;;
63499;SDS011;49654;51.142;14.924;2022-09-09T08:48:51;6.18;;;4.50;;
63499;SDS011;49654;51.142;14.924;2022-09-09T08:51:25;6.13;;;4.20;;
63499;SDS011;49654;51.142;14.924;2022-09-09T08:53:57;5.28;;;4.20;;
63499;SDS011;49654;51.142;14.924;2022-09-09T08:56:28;6.28;;;4.13;;
63499;SDS011;49654;51.142;14.924;2022-09-09T08:58:59;4.68;;;3.58;;
63499;SDS011;49654;51.142;14.924;2022-09-09T09:01:33;3.92;;;3.53;;
63499;SDS011;49654;51.142;14.924;2022-09-09T09:04:12;3.55;;;3.25;;
63499;SDS011;49654;51.142;14.924;2022-09-09T09:06:50;5.50;;;3.40;;
63499;SDS011;49654;51.142;14.924;2022-09-09T09:09:26;3.83;;;2.90;;
63499;SDS011;49654;51.142;14.924;2022-09-09T09:12:06;7.38;;;2.88;;
63499;SDS011;49654;51.142;14.924;2022-09-09T09:14:41;4.75;;;2.50;;
63499;SDS011;49654;51.142;14.924;2022-09-09T09:17:13;4.20;;;2.22;;
63499;SDS011;49654;51.142;14.924;2022-09-09T09:19:43;4.03;;;1.90;;
63499;SDS011;49654;51.142;14.924;2022-09-09T09:22:14;3.75;;;2.38;;
63499;SDS011;49654;51.142;14.924;2022-09-09T09:24:49;4.53;;;2.50;;
63499;SDS011;49654;51.142;14.924;2022-09-09T09:27:21;4.53;;;2.15;;
63499;SDS011;49654;51.142;14.924;2022-09-09T09:29:54;3.38;;;2.22;;
63499;SDS011;49654;51.142;14.924;2022-09-09T09:32:24;3.20;;;1.98;;
63499;SDS011;49654;51.142;14.924;2022-09-09T09:34:54;4.43;;;2.42;;
63499;SDS011;49654;51.142;14.924;2022-09-09T09:37:25;2.58;;;1.75;;
63499;SDS011;49654;51.142;14.924;2022-09-09T09:39:54;3.03;;;1.77;;
63499;SDS011;49654;51.142;14.924;2022-09-09T09:42:23;3.97;;;2.13;;
63499;SDS011;49654;51.142;14.924;2022-09-09T09:44:50;4.55;;;2.80;;
63499;SDS011;49654;51.142;14.924;2022-09-09T09:47:18;4.60;;;2.08;;
63499;SDS011;49654;51.142;14.924;2022-09-09T09:49:52;3.80;;;2.45;;
63499;SDS011;49654;51.142;14.924;2022-09-09T09:52:21;4.00;;;2.38;;
63499;SDS011;49654;51.142;14.924;2022-09-09T09:54:50;3.47;;;2.03;;
63499;SDS011;49654;51.142;14.924;2022-09-09T09:57:23;2.60;;;2.10;;
63499;SDS011;49654;51.142;14.924;2022-09-09T10:00:01;3.40;;;1.83;;
63499;SDS011;49654;51.142;14.924;2022-09-09T10:02:37;4.07;;;2.10;;
63499;SDS011;49654;51.142;14.924;2022-09-09T10:05:08;3.75;;;2.20;;
63499;SDS011;49654;51.142;14.924;2022-09-09T10:07:40;3.70;;;1.95;;
63499;SDS011;49654;51.142;14.924;2022-09-09T10:10:10;3.38;;;1.90;;
63499;SDS011;49654;51.142;14.924;2022-09-09T10:12:45;5.25;;;2.75;;
63499;SDS011;49654;51.142;14.924;2022-09-09T10:15:26;3.92;;;2.35;;
63499;SDS011;49654;51.142;14.924;2022-09-09T10:18:01;5.57;;;2.25;;
63499;SDS011;49654;51.142;14.924;2022-09-09T10:20:43;3.90;;;2.03;;
63499;SDS011;49654;51.142;14.924;2022-09-09T10:23:21;6.15;;;1.90;;
63499;SDS011;49654;51.142;14.924;2022-09-09T10:26:06;3.45;;;1.85;;
63499;SDS011;49654;51.142;14.924;2022-09-09T10:28:52;4.55;;;1.88;;
63499;SDS011;49654;51.142;14.924;2022-09-09T10:31:30;2.78;;;1.90;;
63499;SDS011;49654;51.142;14.924;2022-09-09T10:34:06;7.65;;;2.20;;
63499;SDS011;49654;51.142;14.924;2022-09-09T10:36:46;2.70;;;2.15;;
63499;SDS011;49654;51.142;14.924;2022-09-09T10:39:18;2.83;;;2.35;;
63499;SDS011;49654;51.142;14.924;2022-09-09T10:42:01;3.97;;;2.30;;
63499;SDS011;49654;51.142;14.924;2022-09-09T10:44:45;3.17;;;2.15;;
63499;SDS011;49654;51.142;14.924;2022-09-09T10:47:31;4.28;;;2.40;;
63499;SDS011;49654;51.142;14.924;2022-09-09T10:50:12;4.78;;;2.40;;
63499;SDS011;49654;51.142;14.924;2022-09-09T10:52:56;2.88;;;1.90;;
63499;SDS011;49654;51.142;14.924;2022-09-09T10:55:32;5.50;;;1.70;;
63499;SDS011;49654;51.142;14.924;2022-09-09T10:58:03;3.97;;;2.00;;
63499;SDS011;49654;51.142;14.924;2022-09-09T11:00:37;3.00;;;1.90;;
63499;SDS011;49654;51.142;14.924;2022-09-09T11:03:09;3.50;;;1.95;;
63499;SDS011;49654;51.142;14.924;2022-09-09T11:05:43;4.80;;;2.15;;
63499;SDS011;49654;51.142;14.924;2022-09-09T11:08:13;2.05;;;1.75;;
63499;SDS011;49654;51.142;14.924;2022-09-09T11:10:45;6.40;;;1.85;;
63499;SDS011;49654;51.142;14.924;2022-09-09T11:13:19;5.45;;;1.77;;
63499;SDS011;49654;51.142;14.924;2022-09-09T11:15:55;3.35;;;1.73;;
63499;SDS011;49654;51.142;14.924;2022-09-09T11:18:27;3.33;;;1.50;;
63499;SDS011;49654;51.142;14.924;2022-09-09T11:20:58;5.25;;;1.70;;
63499;SDS011;49654;51.142;14.924;2022-09-09T11:23:28;4.32;;;1.60;;
63499;SDS011;49654;51.142;14.924;2022-09-09T11:26:06;3.13;;;1.90;;
63499;SDS011;49654;51.142;14.924;2022-09-09T11:28:40;4.75;;;1.60;;
63499;SDS011;49654;51.142;14.924;2022-09-09T11:31:27;2.47;;;1.45;;
63499;SDS011;49654;51.142;14.924;2022-09-09T11:34:16;3.33;;;1.30;;
63499;SDS011;49654;51.142;14.924;2022-09-09T11:37:02;4.22;;;1.30;;
63499;SDS011;49654;51.142;14.924;2022-09-09T11:39:38;2.97;;;1.33;;
63499;SDS011;49654;51.142;14.924;2022-09-09T11:42:16;3.95;;;1.23;;
63499;SDS011;49654;51.142;14.924;2022-09-09T11:44:45;7.10;;;1.48;;
63499;SDS011;49654;51.142;14.924;2022-09-09T11:47:18;3.30;;;1.40;;
63499;SDS011;49654;51.142;14.924;2022-09-09T11:49:50;7.45;;;1.55;;
63499;SDS011;49654;51.142;14.924;2022-09-09T11:52:21;4.65;;;1.50;;
63499;SDS011;49654;51.142;14.924;2022-09-09T11:54:51;4.78;;;1.50;;
63499;SDS011;49654;51.142;14.924;2022-09-09T11:57:25;6.53;;;1.40;;
63499;SDS011;49654;51.142;14.924;2022-09-09T11:59:56;7.75;;;1.67;;
63499;SDS011;49654;51.142;14.924;2022-09-09T12:02:26;3.80;;;1.50;;
63499;SDS011;49654;51.142;14.924;2022-09-09T12:04:57;3.50;;;1.40;;
63499;SDS011;49654;51.142;14.924;2022-09-09T12:07:31;3.20;;;1.77;;
63499;SDS011;49654;51.142;14.924;2022-09-09T12:10:02;3.88;;;1.55;;
63499;SDS011;49654;51.142;14.924;2022-09-09T12:12:33;2.47;;;1.30;;
63499;SDS011;49654;51.142;14.924;2022-09-09T12:17:59;3.85;;;1.25;;
63499;SDS011;49654;51.142;14.924;2022-09-09T12:20:30;5.70;;;1.40;;
63499;SDS011;49654;51.142;14.924;2022-09-09T12:25:58;2.22;;;1.40;;
63499;SDS011;49654;51.142;14.924;2022-09-09T12:28:40;3.80;;;1.38;;
63499;SDS011;49654;51.142;14.924;2022-09-09T12:31:14;3.67;;;1.65;;
63499;SDS011;49654;51.142;14.924;2022-09-09T12:33:49;4.97;;;1.70;;
63499;SDS011;49654;51.142;14.924;2022-09-09T12:36:18;4.47;;;1.40;;
63499;SDS011;49654;51.142;14.924;2022-09-09T12:38:47;2.65;;;1.20;;
63499;SDS011;49654;51.142;14.924;2022-09-09T12:41:19;4.35;;;1.63;;
63499;SDS011;49654;51.142;14.924;2022-09-09T12:43:49;7.65;;;2.35;;
63499;SDS011;49654;51.142;14.924;2022-09-09T12:46:21;1.80;;;1.30;;
63499;SDS011;49654;51.142;14.924;2022-09-09T12:48:58;4.38;;;1.25;;
63499;SDS011;49654;51.142;14.924;2022-09-09T12:51:26;4.03;;;1.95;;
63499;SDS011;49654;51.142;14.924;2022-09-09T12:53:55;4.00;;;1.50;;
63499;SDS011;49654;51.142;14.924;2022-09-09T12:56:24;4.13;;;1.50;;
63499;SDS011;49654;51.142;14.924;2022-09-09T12:58:53;4.40;;;1.35;;
63499;SDS011;49654;51.142;14.924;2022-09-09T13:01:23;3.13;;;1.50;;
63499;SDS011;49654;51.142;14.924;2022-09-09T13:03:51;3.03;;;1.60;;
63499;SDS011;49654;51.142;14.924;2022-09-09T13:06:21;4.25;;;1.73;;
63499;SDS011;49654;51.142;14.924;2022-09-09T13:08:50;3.25;;;1.30;;
63499;SDS011;49654;51.142;14.924;2022-09-09T13:11:18;6.35;;;1.50;;
63499;SDS011;49654;51.142;14.924;2022-09-09T13:13:52;3.47;;;1.30;;
63499;SDS011;49654;51.142;14.924;2022-09-09T13:16:22;2.90;;;1.50;;
63499;SDS011;49654;51.142;14.924;2022-09-09T13:18:52;2.92;;;1.58;;
63499;SDS011;49654;51.142;14.924;2022-09-09T13:21:31;2.67;;;1.30;;
63499;SDS011;49654;51.142;14.924;2022-09-09T13:24:00;2.50;;;1.50;;
63499;SDS011;49654;51.142;14.924;2022-09-09T13:26:30;2.33;;;1.30;;
63499;SDS011;49654;51.142;14.924;2022-09-09T13:29:07;2.45;;;1.35;;
63499;SDS011;49654;51.142;14.924;2022-09-09T13:31:43;3.55;;;1.40;;
63499;SDS011;49654;51.142;14.924;2022-09-09T13:34:11;2.88;;;1.20;;
63499;SDS011;49654;51.142;14.924;2022-09-09T13:36:41;3.65;;;1.65;;
63499;SDS011;49654;51.142;14.924;2022-09-09T13:39:12;2.25;;;1.20;;
63499;SDS011;49654;51.142;14.924;2022-09-09T13:41:42;1.52;;;1.13;;
63499;SDS011;49654;51.142;14.924;2022-09-09T13:44:16;3.25;;;1.50;;
63499;SDS011;49654;51.142;14.924;2022-09-09T13:46:58;2.17;;;1.23;;
63499;SDS011;49654;51.142;14.924;2022-09-09T13:49:27;4.63;;;1.52;;
63499;SDS011;49654;51.142;14.924;2022-09-09T13:52:04;1.77;;;1.10;;
63499;SDS011;49654;51.142;14.924;2022-09-09T13:54:38;3.03;;;1.27;;
63499;SDS011;49654;51.142;14.924;2022-09-09T13:57:06;1.98;;;1.40;;
63499;SDS011;49654;51.142;14.924;2022-09-09T13:59:43;3.78;;;1.50;;
63499;SDS011;49654;51.142;14.924;2022-09-09T14:02:09;3.38;;;1.30;;
63499;SDS011;49654;51.142;14.924;2022-09-09T14:04:36;3.35;;;1.30;;
63499;SDS011;49654;51.142;14.924;2022-09-09T14:07:05;3.35;;;1.60;;
63499;SDS011;49654;51.142;14.924;2022-09-09T14:09:31;4.75;;;1.63;;
63499;SDS011;49654;51.142;14.924;2022-09-09T14:11:58;3.03;;;1.73;;
63499;SDS011;49654;51.142;14.924;2022-09-09T14:14:26;5.07;;;1.73;;
63499;SDS011;49654;51.142;14.924;2022-09-09T14:16:53;6.45;;;1.88;;
63499;SDS011;49654;51.142;14.924;2022-09-09T14:19:20;3.72;;;1.65;;
63499;SDS011;49654;51.142;14.924;2022-09-09T14:21:47;4.47;;;1.52;;
63499;SDS011;49654;51.142;14.924;2022-09-09T14:24:15;4.82;;;1.75;;
63499;SDS011;49654;51.142;14.924;2022-09-09T14:26:43;3.95;;;1.60;;
63499;SDS011;49654;51.142;14.924;2022-09-09T14:29:09;1.90;;;1.17;;
63499;SDS011;49654;51.142;14.924;2022-09-09T14:31:36;3.28;;;1.20;;
63499;SDS011;49654;51.142;14.924;2022-09-09T14:34:03;4.15;;;1.10;;
63499;SDS011;49654;51.142;14.924;2022-09-09T14:36:31;2.97;;;0.98;;
63499;SDS011;49654;51.142;14.924;2022-09-09T14:38:58;1.95;;;0.98;;
63499;SDS011;49654;51.142;14.924;2022-09-09T14:41:27;1.80;;;1.15;;
63499;SDS011;49654;51.142;14.924;2022-09-09T14:43:55;2.38;;;1.10;;
63499;SDS011;49654;51.142;14.924;2022-09-09T14:46:22;2.33;;;1.00;;
63499;SDS011;49654;51.142;14.924;2022-09-09T14:48:49;1.92;;;0.73;;
63499;SDS011;49654;51.142;14.924;2022-09-09T14:51:17;1.63;;;1.10;;
63499;SDS011;49654;51.142;14.924;2022-09-09T14:53:46;3.13;;;0.95;;
63499;SDS011;49654;51.142;14.924;2022-09-09T14:56:14;4.38;;;1.23;;
63499;SDS011;49654;51.142;14.924;2022-09-09T14:58:43;3.63;;;1.10;;
63499;SDS011;49654;51.142;14.924;2022-09-09T15:01:12;6.55;;;1.25;;
63499;SDS011;49654;51.142;14.924;2022-09-09T15:03:41;2.42;;;1.15;;